Terminal Aerodrome Forecast
Issued by NWS

Home | Current Version | Previous Version | Text Only | Print | Product List | Glossary On
Versions: 1 2 3 4 5 6 7 8 9 10 11 12 13 14 15 16 17
922
FTUS43 KDVN 281728
TAFBRL
TAF
KBRL 281728Z 2818/2918 34007KT P6SM BKN035
     FM290500 32003KT 3SM BR OVC009
      TEMPO 2908/2912 1SM BR OVC005
     FM291400 35006KT P6SM OVC015=

USA.gov is the U.S. government's official web portal to all federal, state and local government web resources and services.